MyWebLog Booking Liste

 

Nyhetsmelding

Kopirett © 2014 Værnes Flyklubb. Alle rettigheter reservert.
Joomla! er fri programvare utgitt under GNU/GPL License.
 

METAR

ENVA 170650Z 14010KT 9999 -RA FEW004 BKN036 07/02 Q1000 NOSIG RMK WIND 670FT 19014KT

TAF ENVA 1706/1806 15008KT 9999 -RA FEW025 BKN050 BECMG 1712/1715 26012KT BECMG 1721/1724 34010KT TEMPO 1718/1724 SHRA FEW020CB SCT040